sensor_id;sensor_type;location;lat;lon;timestamp;pressure;altitude;pressure_sealevel;temperature;humidity
70304;BME280;57712;48.752;11.348;2022-12-18T00:02:11;98762.72;;;-7.72;100.00
70304;BME280;57712;48.752;11.348;2022-12-18T00:04:38;98763.78;;;-7.68;100.00
70304;BME280;57712;48.752;11.348;2022-12-18T00:07:04;98772.03;;;-7.74;100.00
70304;BME280;57712;48.752;11.348;2022-12-18T00:09:31;98762.97;;;-7.58;100.00
70304;BME280;57712;48.752;11.348;2022-12-18T00:12:05;98763.50;;;-7.71;100.00
70304;BME280;57712;48.752;11.348;2022-12-18T00:14:41;98766.41;;;-7.63;100.00
70304;BME280;57712;48.752;11.348;2022-12-18T00:17:07;98763.50;;;-7.56;100.00
70304;BME280;57712;48.752;11.348;2022-12-18T00:19:34;98754.19;;;-7.64;100.00
70304;BME280;57712;48.752;11.348;2022-12-18T00:22:00;98751.53;;;-7.59;100.00
70304;BME280;57712;48.752;11.348;2022-12-18T00:24:27;98759.78;;;-7.60;100.00
70304;BME280;57712;48.752;11.348;2022-12-18T00:26:53;98758.94;;;-7.50;100.00
70304;BME280;57712;48.752;11.348;2022-12-18T00:29:20;98762.41;;;-7.45;100.00
70304;BME280;57712;48.752;11.348;2022-12-18T00:31:46;98766.38;;;-7.42;100.00
70304;BME280;57712;48.752;11.348;2022-12-18T00:34:13;98765.88;;;-7.54;100.00
70304;BME280;57712;48.752;11.348;2022-12-18T00:36:40;98764.03;;;-7.59;100.00
70304;BME280;57712;48.752;11.348;2022-12-18T00:39:07;98749.41;;;-7.57;100.00
70304;BME280;57712;48.752;11.348;2022-12-18T00:41:34;98753.91;;;-7.47;100.00
70304;BME280;57712;48.752;11.348;2022-12-18T00:44:19;98756.84;;;-7.48;100.00
70304;BME280;57712;48.752;11.348;2022-12-18T00:46:47;98761.09;;;-7.47;100.00
70304;BME280;57712;48.752;11.348;2022-12-18T00:49:19;98771.44;;;-7.36;100.00
70304;BME280;57712;48.752;11.348;2022-12-18T00:51:47;98763.97;;;-7.34;100.00
70304;BME280;57712;48.752;11.348;2022-12-18T00:54:14;98761.53;;;-7.25;100.00
70304;BME280;57712;48.752;11.348;2022-12-18T00:56:41;98769.53;;;-7.25;100.00
70304;BME280;57712;48.752;11.348;2022-12-18T00:59:18;98778.03;;;-7.18;100.00
70304;BME280;57712;48.752;11.348;2022-12-18T01:01:45;98782.78;;;-7.05;100.00
70304;BME280;57712;48.752;11.348;2022-12-18T01:04:13;98781.19;;;-7.06;100.00
70304;BME280;57712;48.752;11.348;2022-12-18T01:06:40;98781.16;;;-6.95;100.00
70304;BME280;57712;48.752;11.348;2022-12-18T01:09:07;98786.47;;;-6.95;100.00
70304;BME280;57712;48.752;11.348;2022-12-18T01:11:33;98786.44;;;-6.85;100.00
70304;BME280;57712;48.752;11.348;2022-12-18T01:14:00;98792.28;;;-6.83;100.00
70304;BME280;57712;48.752;11.348;2022-12-18T01:16:27;98789.09;;;-6.90;100.00
70304;BME280;57712;48.752;11.348;2022-12-18T01:18:54;98799.97;;;-6.77;100.00
70304;BME280;57712;48.752;11.348;2022-12-18T01:21:21;98797.84;;;-6.75;100.00
70304;BME280;57712;48.752;11.348;2022-12-18T01:23:53;98803.91;;;-6.64;100.00
70304;BME280;57712;48.752;11.348;2022-12-18T01:26:20;98802.25;;;-6.55;100.00
70304;BME280;57712;48.752;11.348;2022-12-18T01:28:46;98814.50;;;-6.54;100.00
70304;BME280;57712;48.752;11.348;2022-12-18T01:33:43;98813.97;;;-6.51;100.00
70304;BME280;57712;48.752;11.348;2022-12-18T01:36:19;98822.50;;;-6.59;100.00
70304;BME280;57712;48.752;11.348;2022-12-18T01:38:47;98816.84;;;-6.42;100.00
70304;BME280;57712;48.752;11.348;2022-12-18T01:41:14;98815.50;;;-6.40;100.00
70304;BME280;57712;48.752;11.348;2022-12-18T01:43:57;98819.75;;;-6.38;100.00
70304;BME280;57712;48.752;11.348;2022-12-18T01:46:25;98821.63;;;-6.39;100.00
70304;BME280;57712;48.752;11.348;2022-12-18T01:49:00;98821.94;;;-6.46;100.00
70304;BME280;57712;48.752;11.348;2022-12-18T01:51:29;98824.06;;;-6.48;100.00
70304;BME280;57712;48.752;11.348;2022-12-18T01:53:56;98828.56;;;-6.43;100.00
70304;BME280;57712;48.752;11.348;2022-12-18T01:56:23;98824.34;;;-6.49;100.00
70304;BME280;57712;48.752;11.348;2022-12-18T01:59:00;98811.28;;;-6.46;100.00
70304;BME280;57712;48.752;11.348;2022-12-18T02:01:29;98813.84;;;-6.30;100.00
70304;BME280;57712;48.752;11.348;2022-12-18T02:04:18;98814.63;;;-6.30;100.00
70304;BME280;57712;48.752;11.348;2022-12-18T02:06:45;98805.00;;;-6.26;100.00
70304;BME280;57712;48.752;11.348;2022-12-18T02:09:26;98806.41;;;-6.33;100.00
70304;BME280;57712;48.752;11.348;2022-12-18T02:12:08;98801.66;;;-6.42;100.00
70304;BME280;57712;48.752;11.348;2022-12-18T02:15:09;98801.94;;;-6.43;100.00
70304;BME280;57712;48.752;11.348;2022-12-18T02:17:47;98815.66;;;-6.26;100.00
70304;BME280;57712;48.752;11.348;2022-12-18T02:20:23;98813.53;;;-6.24;100.00
70304;BME280;57712;48.752;11.348;2022-12-18T02:23:04;98817.53;;;-6.21;100.00
70304;BME280;57712;48.752;11.348;2022-12-18T02:28:23;98803.59;;;-6.13;100.00
70304;BME280;57712;48.752;11.348;2022-12-18T02:30:53;98792.16;;;-6.14;100.00
70304;BME280;57712;48.752;11.348;2022-12-18T02:33:23;98797.50;;;-6.19;100.00
70304;BME280;57712;48.752;11.348;2022-12-18T02:35:53;98802.03;;;-6.19;100.00
70304;BME280;57712;48.752;11.348;2022-12-18T02:38:21;98808.94;;;-6.13;100.00
70304;BME280;57712;48.752;11.348;2022-12-18T02:40:50;98801.44;;;-6.11;100.00
70304;BME280;57712;48.752;11.348;2022-12-18T02:43:17;98791.81;;;-6.07;100.00
70304;BME280;57712;48.752;11.348;2022-12-18T02:45:50;98800.88;;;-6.08;100.00
70304;BME280;57712;48.752;11.348;2022-12-18T02:48:22;98804.06;;;-6.01;100.00
70304;BME280;57712;48.752;11.348;2022-12-18T02:53:45;98801.59;;;-5.97;100.00
70304;BME280;57712;48.752;11.348;2022-12-18T02:56:15;98812.16;;;-5.87;100.00
70304;BME280;57712;48.752;11.348;2022-12-18T02:59:13;98795.97;;;-5.91;100.00
70304;BME280;57712;48.752;11.348;2022-12-18T03:01:48;98787.88;;;-5.86;100.00
70304;BME280;57712;48.752;11.348;2022-12-18T03:07:03;98795.84;;;-5.81;100.00
70304;BME280;57712;48.752;11.348;2022-12-18T03:09:37;98795.88;;;-5.86;100.00
70304;BME280;57712;48.752;11.348;2022-12-18T03:14:54;98804.84;;;-5.71;100.00
70304;BME280;57712;48.752;11.348;2022-12-18T03:17:25;98807.31;;;-5.80;100.00
70304;BME280;57712;48.752;11.348;2022-12-18T03:19:54;98811.34;;;-5.83;100.00
70304;BME280;57712;48.752;11.348;2022-12-18T03:22:23;98808.34;;;-5.76;100.00
70304;BME280;57712;48.752;11.348;2022-12-18T03:24:53;98806.47;;;-5.75;100.00
70304;BME280;57712;48.752;11.348;2022-12-18T03:27:23;98808.13;;;-5.79;100.00
70304;BME280;57712;48.752;11.348;2022-12-18T03:30:00;98804.88;;;-5.76;100.00
70304;BME280;57712;48.752;11.348;2022-12-18T03:32:54;98815.97;;;-5.64;100.00
70304;BME280;57712;48.752;11.348;2022-12-18T03:35:29;98809.94;;;-5.75;100.00
70304;BME280;57712;48.752;11.348;2022-12-18T03:37:57;98805.88;;;-5.67;100.00
70304;BME280;57712;48.752;11.348;2022-12-18T03:40:31;98810.66;;;-5.64;100.00
70304;BME280;57712;48.752;11.348;2022-12-18T03:43:10;98801.56;;;-5.63;100.00
70304;BME280;57712;48.752;11.348;2022-12-18T03:45:50;98808.84;;;-5.69;100.00
70304;BME280;57712;48.752;11.348;2022-12-18T03:48:31;98799.97;;;-5.64;100.00
70304;BME280;57712;48.752;11.348;2022-12-18T03:51:16;98801.56;;;-5.63;100.00
70304;BME280;57712;48.752;11.348;2022-12-18T03:53:49;98791.22;;;-5.70;100.00
70304;BME280;57712;48.752;11.348;2022-12-18T03:56:21;98792.50;;;-5.62;100.00
70304;BME280;57712;48.752;11.348;2022-12-18T03:58:50;98796.22;;;-5.63;100.00
70304;BME280;57712;48.752;11.348;2022-12-18T04:01:20;98811.91;;;-5.57;100.00
70304;BME280;57712;48.752;11.348;2022-12-18T04:03:49;98810.34;;;-5.58;100.00
70304;BME280;57712;48.752;11.348;2022-12-18T04:06:16;98804.13;;;-5.53;100.00
70304;BME280;57712;48.752;11.348;2022-12-18T04:08:43;98800.34;;;-5.47;100.00
70304;BME280;57712;48.752;11.348;2022-12-18T04:11:10;98815.06;;;-5.49;100.00
70304;BME280;57712;48.752;11.348;2022-12-18T04:13:38;98806.72;;;-5.43;100.00
70304;BME280;57712;48.752;11.348;2022-12-18T04:16:05;98800.81;;;-5.40;100.00
70304;BME280;57712;48.752;11.348;2022-12-18T04:18:32;98796.00;;;-5.38;100.00
70304;BME280;57712;48.752;11.348;2022-12-18T04:20:58;98804.00;;;-5.38;100.00
70304;BME280;57712;48.752;11.348;2022-12-18T04:23:25;98819.44;;;-5.35;100.00
70304;BME280;57712;48.752;11.348;2022-12-18T04:25:51;98808.25;;;-5.37;100.00
70304;BME280;57712;48.752;11.348;2022-12-18T04:28:18;98821.00;;;-5.29;100.00
70304;BME280;57712;48.752;11.348;2022-12-18T04:30:45;98819.81;;;-5.17;100.00
70304;BME280;57712;48.752;11.348;2022-12-18T04:33:14;98834.25;;;-5.18;100.00
70304;BME280;57712;48.752;11.348;2022-12-18T04:35:44;98852.88;;;-5.13;100.00
70304;BME280;57712;48.752;11.348;2022-12-18T04:38:11;98854.63;;;-5.28;100.00
70304;BME280;57712;48.752;11.348;2022-12-18T04:40:38;98849.22;;;-5.23;100.00
70304;BME280;57712;48.752;11.348;2022-12-18T04:43:06;98842.28;;;-5.18;100.00
70304;BME280;57712;48.752;11.348;2022-12-18T04:45:33;98839.34;;;-5.22;100.00
70304;BME280;57712;48.752;11.348;2022-12-18T04:48:00;98830.78;;;-5.19;100.00
70304;BME280;57712;48.752;11.348;2022-12-18T04:50:27;98836.31;;;-5.10;100.00
70304;BME280;57712;48.752;11.348;2022-12-18T04:52:55;98827.25;;;-5.14;100.00
70304;BME280;57712;48.752;11.348;2022-12-18T04:55:24;98830.22;;;-5.16;100.00
70304;BME280;57712;48.752;11.348;2022-12-18T04:57:51;98828.22;;;-5.29;100.00
70304;BME280;57712;48.752;11.348;2022-12-18T05:00:17;98833.69;;;-5.15;100.00
70304;BME280;57712;48.752;11.348;2022-12-18T05:02:44;98839.00;;;-5.10;100.00
70304;BME280;57712;48.752;11.348;2022-12-18T05:05:11;98842.78;;;-5.16;100.00
70304;BME280;57712;48.752;11.348;2022-12-18T05:07:37;98835.34;;;-5.19;100.00
70304;BME280;57712;48.752;11.348;2022-12-18T05:10:04;98841.66;;;-5.10;100.00
70304;BME280;57712;48.752;11.348;2022-12-18T05:12:35;98855.31;;;-4.88;100.00
70304;BME280;57712;48.752;11.348;2022-12-18T05:15:22;98850.59;;;-4.96;100.00
70304;BME280;57712;48.752;11.348;2022-12-18T05:17:49;98849.50;;;-4.95;100.00
70304;BME280;57712;48.752;11.348;2022-12-18T05:20:15;98858.38;;;-5.00;100.00
70304;BME280;57712;48.752;11.348;2022-12-18T05:22:41;98852.00;;;-5.04;100.00
70304;BME280;57712;48.752;11.348;2022-12-18T05:25:08;98849.22;;;-4.94;100.00
70304;BME280;57712;48.752;11.348;2022-12-18T05:27:35;98854.09;;;-5.01;100.00
70304;BME280;57712;48.752;11.348;2022-12-18T05:30:01;98858.03;;;-4.93;100.00
70304;BME280;57712;48.752;11.348;2022-12-18T05:32:28;98854.91;;;-5.00;100.00
70304;BME280;57712;48.752;11.348;2022-12-18T05:34:54;98853.47;;;-4.93;100.00
70304;BME280;57712;48.752;11.348;2022-12-18T05:37:21;98856.91;;;-4.87;100.00
70304;BME280;57712;48.752;11.348;2022-12-18T05:39:47;98856.91;;;-4.87;100.00
70304;BME280;57712;48.752;11.348;2022-12-18T05:42:14;98859.50;;;-4.82;100.00
70304;BME280;57712;48.752;11.348;2022-12-18T05:44:40;98863.22;;;-4.78;100.00
70304;BME280;57712;48.752;11.348;2022-12-18T05:47:07;98865.88;;;-4.78;100.00
70304;BME280;57712;48.752;11.348;2022-12-18T05:49:33;98875.59;;;-4.87;100.00
70304;BME280;57712;48.752;11.348;2022-12-18T05:52:00;98866.78;;;-4.87;100.00
70304;BME280;57712;48.752;11.348;2022-12-18T05:54:27;98864.50;;;-4.99;100.00
70304;BME280;57712;48.752;11.348;2022-12-18T05:56:54;98851.66;;;-4.97;100.00
70304;BME280;57712;48.752;11.348;2022-12-18T05:59:21;98850.50;;;-4.91;100.00
70304;BME280;57712;48.752;11.348;2022-12-18T06:01:47;98858.31;;;-4.95;100.00
70304;BME280;57712;48.752;11.348;2022-12-18T06:04:14;98861.94;;;-5.09;100.00
70304;BME280;57712;48.752;11.348;2022-12-18T06:06:41;98862.44;;;-5.07;100.00
70304;BME280;57712;48.752;11.348;2022-12-18T06:09:07;98865.78;;;-5.20;100.00
70304;BME280;57712;48.752;11.348;2022-12-18T06:11:36;98866.72;;;-5.06;100.00
70304;BME280;57712;48.752;11.348;2022-12-18T06:14:04;98862.16;;;-5.06;100.00
70304;BME280;57712;48.752;11.348;2022-12-18T06:16:31;98861.19;;;-5.15;100.00
70304;BME280;57712;48.752;11.348;2022-12-18T06:18:59;98869.59;;;-5.03;100.00
70304;BME280;57712;48.752;11.348;2022-12-18T06:21:28;98868.81;;;-5.03;100.00
70304;BME280;57712;48.752;11.348;2022-12-18T06:23:55;98870.97;;;-5.05;100.00
70304;BME280;57712;48.752;11.348;2022-12-18T06:26:22;98885.88;;;-4.99;100.00
70304;BME280;57712;48.752;11.348;2022-12-18T06:28:53;98878.81;;;-4.90;100.00
70304;BME280;57712;48.752;11.348;2022-12-18T06:31:20;98890.66;;;-4.96;100.00
70304;BME280;57712;48.752;11.348;2022-12-18T06:33:46;98877.59;;;-4.98;100.00
70304;BME280;57712;48.752;11.348;2022-12-18T06:36:13;98882.81;;;-4.87;100.00
70304;BME280;57712;48.752;11.348;2022-12-18T06:38:41;98883.63;;;-4.87;100.00
70304;BME280;57712;48.752;11.348;2022-12-18T06:41:14;98875.13;;;-4.94;100.00
70304;BME280;57712;48.752;11.348;2022-12-18T06:43:41;98889.06;;;-4.97;100.00
70304;BME280;57712;48.752;11.348;2022-12-18T06:46:09;98892.72;;;-4.88;100.00
70304;BME280;57712;48.752;11.348;2022-12-18T06:48:36;98894.97;;;-5.00;100.00
70304;BME280;57712;48.752;11.348;2022-12-18T06:51:03;98906.28;;;-5.08;100.00
70304;BME280;57712;48.752;11.348;2022-12-18T06:53:31;98906.81;;;-5.11;100.00
70304;BME280;57712;48.752;11.348;2022-12-18T06:56:02;98907.69;;;-4.92;100.00
70304;BME280;57712;48.752;11.348;2022-12-18T06:58:35;98916.59;;;-5.02;100.00
70304;BME280;57712;48.752;11.348;2022-12-18T07:01:04;98910.09;;;-4.90;100.00
70304;BME280;57712;48.752;11.348;2022-12-18T07:03:31;98906.69;;;-4.96;100.00
70304;BME280;57712;48.752;11.348;2022-12-18T07:05:57;98895.94;;;-4.91;100.00
70304;BME280;57712;48.752;11.348;2022-12-18T07:08:24;98901.25;;;-4.86;100.00
70304;BME280;57712;48.752;11.348;2022-12-18T07:10:51;98906.63;;;-4.91;100.00
70304;BME280;57712;48.752;11.348;2022-12-18T07:13:21;98911.41;;;-4.88;100.00
70304;BME280;57712;48.752;11.348;2022-12-18T07:15:48;98913.19;;;-4.78;100.00
70304;BME280;57712;48.752;11.348;2022-12-18T07:18:15;98926.50;;;-4.73;100.00
70304;BME280;57712;48.752;11.348;2022-12-18T07:20:41;98919.88;;;-4.81;100.00
70304;BME280;57712;48.752;11.348;2022-12-18T07:23:08;98918.44;;;-4.68;100.00
70304;BME280;57712;48.752;11.348;2022-12-18T07:25:35;98915.13;;;-4.60;100.00
70304;BME280;57712;48.752;11.348;2022-12-18T07:28:02;98911.72;;;-4.66;100.00
70304;BME280;57712;48.752;11.348;2022-12-18T07:30:29;98913.88;;;-4.68;100.00
70304;BME280;57712;48.752;11.348;2022-12-18T07:32:55;98913.53;;;-4.61;100.00
70304;BME280;57712;48.752;11.348;2022-12-18T07:35:22;98912.19;;;-4.58;100.00
70304;BME280;57712;48.752;11.348;2022-12-18T07:37:50;98915.06;;;-4.55;100.00
70304;BME280;57712;48.752;11.348;2022-12-18T07:40:17;98914.31;;;-4.60;100.00
70304;BME280;57712;48.752;11.348;2022-12-18T07:42:43;98914.31;;;-4.60;100.00
70304;BME280;57712;48.752;11.348;2022-12-18T07:45:10;98908.41;;;-4.57;100.00
70304;BME280;57712;48.752;11.348;2022-12-18T07:47:37;98912.19;;;-4.58;100.00
70304;BME280;57712;48.752;11.348;2022-12-18T07:50:04;98907.72;;;-4.44;100.00
70304;BME280;57712;48.752;11.348;2022-12-18T07:52:31;98906.31;;;-4.60;100.00
70304;BME280;57712;48.752;11.348;2022-12-18T07:54:58;98910.91;;;-4.42;100.00
70304;BME280;57712;48.752;11.348;2022-12-18T07:57:25;98918.94;;;-4.42;100.00
70304;BME280;57712;48.752;11.348;2022-12-18T08:00:12;98930.81;;;-4.29;100.00
70304;BME280;57712;48.752;11.348;2022-12-18T08:02:39;98934.72;;;-4.22;100.00
70304;BME280;57712;48.752;11.348;2022-12-18T08:05:07;98932.81;;;-4.16;100.00
70304;BME280;57712;48.752;11.348;2022-12-18T08:07:34;98935.25;;;-4.20;100.00
70304;BME280;57712;48.752;11.348;2022-12-18T08:10:00;98930.94;;;-4.16;100.00
70304;BME280;57712;48.752;11.348;2022-12-18T08:12:27;98939.16;;;-4.12;100.00
70304;BME280;57712;48.752;11.348;2022-12-18T08:14:54;98942.66;;;-4.36;100.00
70304;BME280;57712;48.752;11.348;2022-12-18T08:17:20;98937.19;;;-4.07;100.00
70304;BME280;57712;48.752;11.348;2022-12-18T08:19:46;98941.91;;;-3.98;100.00
70304;BME280;57712;48.752;11.348;2022-12-18T08:22:13;98946.41;;;-4.13;100.00
70304;BME280;57712;48.752;11.348;2022-12-18T08:24:39;98943.75;;;-4.18;100.00
70304;BME280;57712;48.752;11.348;2022-12-18T08:27:06;98945.63;;;-4.37;100.00
70304;BME280;57712;48.752;11.348;2022-12-18T08:29:52;98951.19;;;-4.33;100.00
70304;BME280;57712;48.752;11.348;2022-12-18T08:32:19;98965.97;;;-4.41;100.00
70304;BME280;57712;48.752;11.348;2022-12-18T08:34:45;98967.25;;;-4.33;100.00
70304;BME280;57712;48.752;11.348;2022-12-18T08:37:12;98975.81;;;-4.13;100.00
70304;BME280;57712;48.752;11.348;2022-12-18T08:39:38;98975.66;;;-4.21;100.00
70304;BME280;57712;48.752;11.348;2022-12-18T08:42:05;98973.34;;;-4.09;100.00
70304;BME280;57712;48.752;11.348;2022-12-18T08:44:50;98971.69;;;-4.24;100.00
70304;BME280;57712;48.752;11.348;2022-12-18T08:47:16;98973.22;;;-3.99;100.00
70304;BME280;57712;48.752;11.348;2022-12-18T08:49:43;98974.94;;;-3.84;100.00
70304;BME280;57712;48.752;11.348;2022-12-18T08:52:09;98965.28;;;-4.04;100.00
70304;BME280;57712;48.752;11.348;2022-12-18T08:54:35;98963.41;;;-4.03;100.00
70304;BME280;57712;48.752;11.348;2022-12-18T08:57:02;98963.91;;;-4.01;100.00
70304;BME280;57712;48.752;11.348;2022-12-18T08:59:29;98963.41;;;-4.27;100.00
70304;BME280;57712;48.752;11.348;2022-12-18T09:01:55;98965.22;;;-3.99;100.00
70304;BME280;57712;48.752;11.348;2022-12-18T09:04:22;98965.81;;;-3.83;100.00
70304;BME280;57712;48.752;11.348;2022-12-18T09:06:49;98965.44;;;-3.77;100.00
70304;BME280;57712;48.752;11.348;2022-12-18T09:09:16;98955.25;;;-3.93;100.00
70304;BME280;57712;48.752;11.348;2022-12-18T09:11:42;98961.75;;;-3.81;100.00
70304;BME280;57712;48.752;11.348;2022-12-18T09:14:09;98960.19;;;-3.63;100.00
70304;BME280;57712;48.752;11.348;2022-12-18T09:16:36;98959.75;;;-3.70;100.00
70304;BME280;57712;48.752;11.348;2022-12-18T09:19:03;98955.03;;;-3.40;100.00
70304;BME280;57712;48.752;11.348;2022-12-18T09:21:33;98959.31;;;-3.39;100.00
70304;BME280;57712;48.752;11.348;2022-12-18T09:24:03;98958.16;;;-3.33;100.00
70304;BME280;57712;48.752;11.348;2022-12-18T09:26:34;98962.28;;;-3.41;100.00
70304;BME280;57712;48.752;11.348;2022-12-18T09:29:02;98938.94;;;-3.22;100.00
70304;BME280;57712;48.752;11.348;2022-12-18T09:31:28;98950.97;;;-3.57;100.00
70304;BME280;57712;48.752;11.348;2022-12-18T09:33:55;98949.34;;;-3.53;100.00
70304;BME280;57712;48.752;11.348;2022-12-18T09:36:22;98957.13;;;-3.37;100.00
70304;BME280;57712;48.752;11.348;2022-12-18T09:38:49;98941.03;;;-3.18;100.00
70304;BME280;57712;48.752;11.348;2022-12-18T09:44:15;98930.94;;;-3.40;100.00
70304;BME280;57712;48.752;11.348;2022-12-18T09:46:47;98934.78;;;-3.14;100.00
70304;BME280;57712;48.752;11.348;2022-12-18T09:49:18;98926.38;;;-3.07;100.00
70304;BME280;57712;48.752;11.348;2022-12-18T09:52:04;98928.00;;;-3.25;100.00
70304;BME280;57712;48.752;11.348;2022-12-18T09:54:42;98929.69;;;-3.29;100.00
70304;BME280;57712;48.752;11.348;2022-12-18T09:57:15;98925.25;;;-3.20;100.00
70304;BME280;57712;48.752;11.348;2022-12-18T09:59:44;98912.88;;;-3.35;100.00
70304;BME280;57712;48.752;11.348;2022-12-18T10:02:15;98927.47;;;-3.41;100.00
70304;BME280;57712;48.752;11.348;2022-12-18T10:04:43;98929.19;;;-2.99;100.00
70304;BME280;57712;48.752;11.348;2022-12-18T10:07:22;98924.75;;;-2.89;100.00
70304;BME280;57712;48.752;11.348;2022-12-18T10:10:00;98925.47;;;-3.03;100.00
70304;BME280;57712;48.752;11.348;2022-12-18T10:12:43;98918.19;;;-2.83;100.00
70304;BME280;57712;48.752;11.348;2022-12-18T10:15:24;98927.28;;;-2.98;100.00
70304;BME280;57712;48.752;11.348;2022-12-18T10:18:18;98919.31;;;-3.17;100.00
70304;BME280;57712;48.752;11.348;2022-12-18T10:21:00;98920.28;;;-3.45;100.00
70304;BME280;57712;48.752;11.348;2022-12-18T10:23:39;98923.31;;;-3.01;100.00
70304;BME280;57712;48.752;11.348;2022-12-18T10:26:13;98911.41;;;-2.95;100.00
70304;BME280;57712;48.752;11.348;2022-12-18T10:28:42;98916.13;;;-3.19;100.00
70304;BME280;57712;48.752;11.348;2022-12-18T10:31:16;98913.31;;;-3.28;100.00
70304;BME280;57712;48.752;11.348;2022-12-18T10:33:43;98915.19;;;-3.28;100.00
70304;BME280;57712;48.752;11.348;2022-12-18T10:36:11;98917.88;;;-3.28;100.00
70304;BME280;57712;48.752;11.348;2022-12-18T10:38:38;98918.69;;;-3.14;100.00
70304;BME280;57712;48.752;11.348;2022-12-18T10:43:39;98917.53;;;-3.08;100.00
70304;BME280;57712;48.752;11.348;2022-12-18T10:51:36;98919.19;;;-2.52;100.00
70304;BME280;57712;48.752;11.348;2022-12-18T10:54:06;98918.44;;;-2.39;100.00
70304;BME280;57712;48.752;11.348;2022-12-18T10:56:34;98916.22;;;-2.23;100.00
70304;BME280;57712;48.752;11.348;2022-12-18T10:59:07;98926.72;;;-2.81;100.00
70304;BME280;57712;48.752;11.348;2022-12-18T11:01:54;98928.16;;;-2.70;100.00
70304;BME280;57712;48.752;11.348;2022-12-18T11:04:31;98924.94;;;-2.86;100.00
70304;BME280;57712;48.752;11.348;2022-12-18T11:07:06;98928.22;;;-2.75;100.00
70304;BME280;57712;48.752;11.348;2022-12-18T11:09:38;98918.59;;;-2.76;100.00
70304;BME280;57712;48.752;11.348;2022-12-18T11:12:19;98922.56;;;-2.74;100.00
70304;BME280;57712;48.752;11.348;2022-12-18T11:14:51;98922.31;;;-3.05;100.00
70304;BME280;57712;48.752;11.348;2022-12-18T11:17:25;98922.72;;;-2.98;100.00
70304;BME280;57712;48.752;11.348;2022-12-18T11:19:56;98921.66;;;-2.83;100.00
70304;BME280;57712;48.752;11.348;2022-12-18T11:22:26;98923.88;;;-2.30;100.00
70304;BME280;57712;48.752;11.348;2022-12-18T11:25:03;98917.81;;;-2.63;100.00
70304;BME280;57712;48.752;11.348;2022-12-18T11:27:55;98915.72;;;-2.66;100.00
70304;BME280;57712;48.752;11.348;2022-12-18T11:30:33;98915.63;;;-2.61;100.00
70304;BME280;57712;48.752;11.348;2022-12-18T11:33:09;98908.47;;;-2.52;100.00
70304;BME280;57712;48.752;11.348;2022-12-18T11:35:53;98902.72;;;-2.18;100.00
70304;BME280;57712;48.752;11.348;2022-12-18T11:38:24;98905.19;;;-2.35;100.00
70304;BME280;57712;48.752;11.348;2022-12-18T11:43:41;98911.06;;;-2.33;100.00
70304;BME280;57712;48.752;11.348;2022-12-18T11:46:14;98896.56;;;-2.46;100.00
70304;BME280;57712;48.752;11.348;2022-12-18T11:48:53;98896.75;;;-2.28;100.00
70304;BME280;57712;48.752;11.348;2022-12-18T11:51:34;98891.59;;;-2.66;100.00
70304;BME280;57712;48.752;11.348;2022-12-18T11:54:13;98894.28;;;-2.66;100.00
70304;BME280;57712;48.752;11.348;2022-12-18T12:13:12;98871.69;;;-2.93;100.00
70304;BME280;57712;48.752;11.348;2022-12-18T12:21:49;98865.34;;;-2.28;100.00
70304;BME280;57712;48.752;11.348;2022-12-18T12:24:46;98855.22;;;-2.45;100.00
70304;BME280;57712;48.752;11.348;2022-12-18T12:27:36;98859.31;;;-2.47;100.00
70304;BME280;57712;48.752;11.348;2022-12-18T12:30:29;98870.63;;;-2.64;100.00
70304;BME280;57712;48.752;11.348;2022-12-18T12:36:05;98867.53;;;-2.44;100.00
70304;BME280;57712;48.752;11.348;2022-12-18T12:38:41;98869.16;;;-2.70;100.00
70304;BME280;57712;48.752;11.348;2022-12-18T12:41:19;98862.28;;;-2.76;100.00
70304;BME280;57712;48.752;11.348;2022-12-18T12:44:12;98863.97;;;-2.53;100.00
70304;BME280;57712;48.752;11.348;2022-12-18T12:46:42;98869.31;;;-2.25;100.00
70304;BME280;57712;48.752;11.348;2022-12-18T12:49:14;98866.16;;;-2.27;100.00
70304;BME280;57712;48.752;11.348;2022-12-18T12:51:45;98865.03;;;-2.40;100.00
70304;BME280;57712;48.752;11.348;2022-12-18T12:54:22;98875.50;;;-2.52;100.00
70304;BME280;57712;48.752;11.348;2022-12-18T12:59:37;98863.78;;;-2.56;100.00
70304;BME280;57712;48.752;11.348;2022-12-18T13:07:57;98872.81;;;-2.80;100.00
70304;BME280;57712;48.752;11.348;2022-12-18T13:13:15;98874.91;;;-2.63;100.00
70304;BME280;57712;48.752;11.348;2022-12-18T13:16:06;98864.38;;;-2.59;100.00
70304;BME280;57712;48.752;11.348;2022-12-18T13:18:34;98866.34;;;-2.24;100.00
70304;BME280;57712;48.752;11.348;2022-12-18T13:23:31;98856.78;;;-2.30;100.00
70304;BME280;57712;48.752;11.348;2022-12-18T13:33:46;98840.91;;;-2.40;100.00
70304;BME280;57712;48.752;11.348;2022-12-18T13:36:33;98830.22;;;-2.68;100.00
70304;BME280;57712;48.752;11.348;2022-12-18T13:41:53;98849.47;;;-2.66;100.00
70304;BME280;57712;48.752;11.348;2022-12-18T13:44:59;98841.13;;;-2.64;100.00
70304;BME280;57712;48.752;11.348;2022-12-18T13:47:32;98835.56;;;-2.81;100.00
70304;BME280;57712;48.752;11.348;2022-12-18T13:50:02;98837.75;;;-2.83;100.00
70304;BME280;57712;48.752;11.348;2022-12-18T13:52:37;98846.09;;;-2.71;100.00
70304;BME280;57712;48.752;11.348;2022-12-18T13:55:14;98852.16;;;-2.79;100.00
70304;BME280;57712;48.752;11.348;2022-12-18T13:57:42;98855.84;;;-2.75;100.00
70304;BME280;57712;48.752;11.348;2022-12-18T14:00:28;98858.72;;;-2.85;100.00
70304;BME280;57712;48.752;11.348;2022-12-18T14:02:56;98845.50;;;-2.96;100.00
70304;BME280;57712;48.752;11.348;2022-12-18T14:05:26;98843.91;;;-2.97;100.00
70304;BME280;57712;48.752;11.348;2022-12-18T14:07:53;98856.91;;;-3.04;100.00
70304;BME280;57712;48.752;11.348;2022-12-18T14:10:23;98869.81;;;-2.92;100.00
70304;BME280;57712;48.752;11.348;2022-12-18T14:13:14;98862.47;;;-3.00;100.00
70304;BME280;57712;48.752;11.348;2022-12-18T14:15:43;98856.41;;;-3.06;100.00
70304;BME280;57712;48.752;11.348;2022-12-18T14:18:24;98856.22;;;-3.09;100.00